Time,TemperatureF,DewpointF,PressureIn,WindDirection,WindDirectionDegrees,WindSpeedMPH,WindSpeedGustMPH,Humidity,HourlyPrecipIn,Conditions,Clouds,dailyrainin,SoftwareType,DateUTC
2013-03-26 00:00:00,33.6,32.5,29.73,WNW,289,0.0,2.0,96,0.00,,,0.44,meteohub,2013-03-26 04:00:00,
2013-03-26 00:05:00,33.6,32.5,29.73,WNW,289,1.0,2.0,96,0.00,,,0.00,meteohub,2013-03-26 04:05:00,
2013-03-26 00:10:00,33.6,32.5,29.73,WNW,289,1.0,1.0,96,0.00,,,0.00,meteohub,2013-03-26 04:10:00,
2013-03-26 00:15:00,33.6,32.5,29.73,WNW,289,0.0,1.0,96,0.00,,,0.00,meteohub,2013-03-26 04:15:00,
2013-03-26 00:20:00,33.6,32.5,29.73,WNW,289,0.0,2.0,96,0.00,,,0.00,meteohub,2013-03-26 04:20:00,
2013-03-26 00:25:00,33.8,32.7,29.73,West,275,1.0,2.0,96,0.00,,,0.00,meteohub,2013-03-26 04:25:00,
2013-03-26 00:30:00,33.8,32.7,29.73,West,275,0.0,2.0,96,0.00,,,0.00,meteohub,2013-03-26 04:30:00,
2013-03-26 00:35:00,33.8,32.7,29.73,West,278,0.0,2.0,96,0.00,,,0.00,meteohub,2013-03-26 04:35:00,
2013-03-26 00:40:00,34.0,33.3,29.73,West,278,1.0,2.0,97,0.01,,,0.01,meteohub,2013-03-26 04:40:00,
2013-03-26 00:45:00,34.0,32.9,29.73,WNW,298,1.0,4.0,96,0.01,,,0.01,meteohub,2013-03-26 04:45:00,
2013-03-26 00:50:00,34.0,32.9,29.73,WNW,288,0.0,4.0,96,0.01,,,0.01,meteohub,2013-03-26 04:50:00,
2013-03-26 00:55:00,34.2,33.1,29.73,WNW,288,1.0,4.0,96,0.01,,,0.01,meteohub,2013-03-26 04:55:00,
2013-03-26 01:00:00,34.2,33.1,29.74,NW,323,0.0,4.0,96,0.01,,,0.01,meteohub,2013-03-26 05:00:00,
2013-03-26 01:05:00,34.2,33.4,29.74,WNW,292,1.0,4.0,97,0.01,,,0.01,meteohub,2013-03-26 05:05:00,
2013-03-26 01:10:00,34.2,33.4,29.74,WNW,299,2.0,4.0,97,0.01,,,0.01,meteohub,2013-03-26 05:10:00,
2013-03-26 01:15:00,34.2,33.4,29.74,WNW,300,0.0,4.0,97,0.01,,,0.01,meteohub,2013-03-26 05:15:00,
2013-03-26 01:20:00,34.2,33.4,29.74,WNW,288,0.0,5.0,97,0.01,,,0.01,meteohub,2013-03-26 05:20:00,
2013-03-26 01:26:00,34.2,33.4,29.74,WNW,288,1.0,5.0,97,0.01,,,0.01,meteohub,2013-03-26 05:26:00,
2013-03-26 01:31:00,34.2,33.4,29.74,WNW,288,2.0,3.0,97,0.01,,,0.01,meteohub,2013-03-26 05:31:00,
2013-03-26 01:36:00,34.2,33.4,29.74,NW,311,2.0,2.0,97,0.00,,,0.01,meteohub,2013-03-26 05:36:00,
2013-03-26 01:41:00,34.2,33.4,29.75,WNW,299,0.0,4.0,97,0.00,,,0.01,meteohub,2013-03-26 05:41:00,
2013-03-26 01:46:00,34.0,33.3,29.75,WNW,288,0.0,4.0,97,0.00,,,0.01,meteohub,2013-03-26 05:46:00,
2013-03-26 01:51:00,34.0,33.3,29.75,WNW,288,0.0,4.0,97,0.00,,,0.01,meteohub,2013-03-26 05:51:00,
2013-03-26 01:56:00,34.0,33.3,29.75,WNW,288,0.0,3.0,97,0.00,,,0.01,meteohub,2013-03-26 05:56:00,
2013-03-26 02:01:00,34.0,33.3,29.75,WNW,288,0.0,2.0,97,0.00,,,0.01,meteohub,2013-03-26 06:01:00,
2013-03-26 02:06:00,33.8,33.1,29.76,WNW,288,0.0,1.0,97,0.00,,,0.01,meteohub,2013-03-26 06:06:00,
2013-03-26 02:11:00,33.8,33.1,29.76,WNW,288,0.0,1.0,97,0.00,,,0.01,meteohub,2013-03-26 06:11:00,
2013-03-26 02:16:00,33.8,33.1,29.76,WNW,288,0.0,1.0,97,0.00,,,0.01,meteohub,2013-03-26 06:16:00,
2013-03-26 02:21:00,34.0,33.3,29.76,WNW,291,0.0,2.0,97,0.00,,,0.01,meteohub,2013-03-26 06:21:00,
2013-03-26 02:27:00,34.0,33.3,29.76,WNW,292,1.0,3.0,97,0.00,,,0.01,meteohub,2013-03-26 06:27:00,
2013-03-26 02:32:00,34.0,33.3,29.76,NW,312,0.0,4.0,97,0.00,,,0.01,meteohub,2013-03-26 06:32:00,
2013-03-26 02:37:00,34.0,33.3,29.76,NW,312,0.0,4.0,97,0.00,,,0.01,meteohub,2013-03-26 06:37:00,
2013-03-26 02:42:00,34.0,33.3,29.76,WNW,293,0.0,4.0,97,0.00,,,0.01,meteohub,2013-03-26 06:42:00,
2013-03-26 02:47:00,34.0,33.3,29.76,WNW,293,0.0,3.0,97,0.00,,,0.01,meteohub,2013-03-26 06:47:00,
2013-03-26 02:52:00,33.8,33.1,29.77,WNW,292,1.0,3.0,97,0.00,,,0.01,meteohub,2013-03-26 06:52:00,
2013-03-26 02:57:00,33.6,32.9,29.77,WNW,292,1.0,3.0,97,0.00,,,0.01,meteohub,2013-03-26 06:57:00,
2013-03-26 03:02:00,33.6,32.9,29.77,WNW,292,1.0,3.0,97,0.00,,,0.01,meteohub,2013-03-26 07:02:00,
2013-03-26 03:07:00,33.6,32.9,29.77,WNW,292,1.0,2.0,97,0.00,,,0.01,meteohub,2013-03-26 07:07:00,
2013-03-26 03:12:00,33.4,32.7,29.77,WNW,292,1.0,2.0,97,0.00,,,0.01,meteohub,2013-03-26 07:12:00,
2013-03-26 03:17:00,33.4,32.7,29.77,WNW,292,1.0,2.0,97,0.00,,,0.01,meteohub,2013-03-26 07:17:00,
2013-03-26 03:22:00,33.4,32.7,29.77,WNW,299,0.0,2.0,97,0.00,,,0.01,meteohub,2013-03-26 07:22:00,
2013-03-26 03:27:00,33.4,32.7,29.77,WNW,299,0.0,2.0,97,0.00,,,0.01,meteohub,2013-03-26 07:27:00,
2013-03-26 03:32:00,33.3,32.5,29.77,WNW,299,1.0,2.0,97,0.00,,,0.01,meteohub,2013-03-26 07:32:00,
2013-03-26 03:37:00,33.3,32.5,29.77,WNW,299,0.0,1.0,97,0.00,,,0.01,meteohub,2013-03-26 07:37:00,
2013-03-26 03:42:00,33.1,32.4,29.77,WNW,299,0.0,1.0,97,0.00,,,0.01,meteohub,2013-03-26 07:42:00,
2013-03-26 03:47:00,33.1,32.4,29.77,WNW,299,0.0,1.0,97,0.00,,,0.01,meteohub,2013-03-26 07:47:00,
2013-03-26 03:52:00,33.1,32.4,29.77,WNW,299,0.0,1.0,97,0.00,,,0.01,meteohub,2013-03-26 07:52:00,
2013-03-26 03:57:00,32.9,31.8,29.77,WNW,299,0.0,1.0,96,0.00,,,0.01,meteohub,2013-03-26 07:57:00,
2013-03-26 04:02:00,32.7,31.6,29.77,WNW,299,0.0,1.0,96,0.00,,,0.01,meteohub,2013-03-26 08:02:00,
2013-03-26 04:07:00,32.7,31.6,29.77,WNW,299,0.0,1.0,96,0.00,,,0.01,meteohub,2013-03-26 08:07:00,
2013-03-26 04:12:00,32.5,31.5,29.77,WNW,299,0.0,1.0,96,0.00,,,0.01,meteohub,2013-03-26 08:12:00,
2013-03-26 04:17:00,32.5,31.5,29.78,WNW,299,0.0,1.0,96,0.00,,,0.01,meteohub,2013-03-26 08:17:00,
2013-03-26 04:22:00,32.4,31.3,29.78,WNW,299,0.0,0.0,96,0.00,,,0.01,meteohub,2013-03-26 08:22:00,
2013-03-26 04:27:00,32.4,31.3,29.78,WNW,299,0.0,0.0,96,0.00,,,0.01,meteohub,2013-03-26 08:27:00,
2013-03-26 04:32:00,32.2,31.1,29.78,WNW,299,0.0,0.0,96,0.00,,,0.01,meteohub,2013-03-26 08:32:00,
2013-03-26 04:37:00,32.2,31.1,29.78,WNW,299,0.0,0.0,96,0.00,,,0.01,meteohub,2013-03-26 08:37:00,
2013-03-26 04:42:00,32.0,30.9,29.78,WNW,299,0.0,2.0,96,0.00,,,0.01,meteohub,2013-03-26 08:42:00,
2013-03-26 04:47:00,31.8,30.7,29.78,WNW,299,0.0,2.0,96,0.00,,,0.01,meteohub,2013-03-26 08:47:00,
2013-03-26 04:52:00,31.8,30.7,29.78,WNW,291,0.0,2.0,96,0.00,,,0.01,meteohub,2013-03-26 08:52:00,
2013-03-26 04:57:00,31.8,30.7,29.78,WNW,291,0.0,2.0,96,0.00,,,0.01,meteohub,2013-03-26 08:57:00,
2013-03-26 05:02:00,31.8,30.7,29.78,WNW,284,0.0,2.0,96,0.00,,,0.01,meteohub,2013-03-26 09:02:00,
2013-03-26 05:08:00,31.6,30.6,29.78,WNW,284,0.0,1.0,96,0.00,,,0.01,meteohub,2013-03-26 09:08:00,
2013-03-26 05:13:00,31.6,30.6,29.78,WNW,284,0.0,1.0,96,0.00,,,0.01,meteohub,2013-03-26 09:13:00,
2013-03-26 05:18:00,31.6,30.6,29.78,WNW,284,0.0,1.0,96,0.00,,,0.01,meteohub,2013-03-26 09:18:00,
2013-03-26 05:23:00,31.6,30.6,29.79,WNW,284,1.0,1.0,96,0.00,,,0.01,meteohub,2013-03-26 09:23:00,
2013-03-26 05:28:00,31.6,30.6,29.79,WNW,284,0.0,1.0,96,0.00,,,0.01,meteohub,2013-03-26 09:28:00,
2013-03-26 05:33:00,31.6,30.6,29.79,WNW,284,0.0,1.0,96,0.00,,,0.01,meteohub,2013-03-26 09:33:00,
2013-03-26 05:38:00,31.6,30.6,29.79,WNW,284,0.0,1.0,96,0.00,,,0.01,meteohub,2013-03-26 09:38:00,
2013-03-26 05:43:00,31.8,30.7,29.79,WNW,284,0.0,1.0,96,0.00,,,0.01,meteohub,2013-03-26 09:43:00,
2013-03-26 05:48:00,31.6,30.6,29.80,WNW,284,0.0,1.0,96,0.00,,,0.01,meteohub,2013-03-26 09:48:00,
2013-03-26 05:53:00,31.8,31.1,29.80,WNW,284,0.0,2.0,97,0.00,,,0.01,meteohub,2013-03-26 09:53:00,
2013-03-26 05:58:00,31.6,30.9,29.80,WNW,284,0.0,2.0,97,0.00,,,0.01,meteohub,2013-03-26 09:58:00,
2013-03-26 06:03:00,31.6,30.9,29.80,WNW,286,0.0,2.0,97,0.00,,,0.01,meteohub,2013-03-26 10:03:00,
2013-03-26 06:08:00,31.6,30.9,29.80,WNW,286,0.0,2.0,97,0.00,,,0.01,meteohub,2013-03-26 10:08:00,
2013-03-26 06:13:00,31.6,30.9,29.81,WNW,286,0.0,2.0,97,0.00,,,0.01,meteohub,2013-03-26 10:13:00,
2013-03-26 06:18:00,31.6,30.9,29.81,WNW,286,0.0,2.0,97,0.00,,,0.01,meteohub,2013-03-26 10:18:00,
2013-03-26 06:23:00,31.6,30.9,29.81,WNW,286,0.0,2.0,97,0.00,,,0.01,meteohub,2013-03-26 10:23:00,
2013-03-26 06:28:00,31.6,30.9,29.81,WNW,286,0.0,2.0,97,0.00,,,0.01,meteohub,2013-03-26 10:28:00,
2013-03-26 06:33:00,31.6,30.9,29.81,WNW,286,0.0,2.0,97,0.00,,,0.01,meteohub,2013-03-26 10:33:00,
2013-03-26 06:38:00,31.6,30.9,29.81,WNW,286,0.0,1.0,97,0.00,,,0.01,meteohub,2013-03-26 10:38:00,
2013-03-26 06:43:00,31.5,30.7,29.81,WNW,286,0.0,1.0,97,0.00,,,0.01,meteohub,2013-03-26 10:43:00,
2013-03-26 06:48:00,31.5,30.7,29.82,WNW,286,0.0,1.0,97,0.00,,,0.01,meteohub,2013-03-26 10:48:00,
2013-03-26 06:53:00,31.5,30.4,29.82,WNW,286,0.0,2.0,96,0.00,,,0.01,meteohub,2013-03-26 10:53:00,
2013-03-26 06:58:00,31.5,30.7,29.82,WNW,286,0.0,2.0,97,0.00,,,0.01,meteohub,2013-03-26 10:58:00,
2013-03-26 07:03:00,31.5,30.7,29.83,WNW,286,0.0,2.0,97,0.00,,,0.01,meteohub,2013-03-26 11:03:00,
2013-03-26 07:08:00,31.5,30.7,29.83,WNW,282,0.0,1.0,97,0.00,,,0.01,meteohub,2013-03-26 11:08:00,
2013-03-26 07:13:00,31.5,30.7,29.83,WNW,282,0.0,1.0,97,0.00,,,0.01,meteohub,2013-03-26 11:13:00,
2013-03-26 07:18:00,31.5,30.7,29.83,WNW,282,0.0,1.0,97,0.00,,,0.01,meteohub,2013-03-26 11:18:00,
2013-03-26 07:23:00,31.3,30.6,29.83,WNW,282,0.0,1.0,97,0.00,,,0.01,meteohub,2013-03-26 11:23:00,
2013-03-26 07:28:00,31.3,30.6,29.83,WNW,282,0.0,2.0,97,0.00,,,0.01,meteohub,2013-03-26 11:28:00,
2013-03-26 07:33:00,31.5,30.7,29.84,WNW,295,0.0,2.0,97,0.00,,,0.01,meteohub,2013-03-26 11:33:00,
2013-03-26 07:38:00,31.5,30.7,29.84,WNW,295,0.0,3.0,97,0.00,,,0.01,meteohub,2013-03-26 11:38:00,
2013-03-26 07:43:00,31.6,30.9,29.84,NW,306,0.0,3.0,97,0.00,,,0.01,meteohub,2013-03-26 11:43:00,
2013-03-26 07:48:00,31.6,30.9,29.84,NW,306,0.0,3.0,97,0.00,,,0.01,meteohub,2013-03-26 11:48:00,
2013-03-26 07:53:00,31.8,31.1,29.84,NW,306,0.0,3.0,97,0.00,,,0.01,meteohub,2013-03-26 11:53:00,
2013-03-26 07:58:00,31.8,31.1,29.85,NW,306,0.0,3.0,97,0.00,,,0.01,meteohub,2013-03-26 11:58:00,
2013-03-26 08:03:00,32.2,31.5,29.85,NW,306,0.0,1.0,97,0.00,,,0.01,meteohub,2013-03-26 12:03:00,
2013-03-26 08:08:00,32.2,31.5,29.85,NW,306,0.0,1.0,97,0.00,,,0.01,meteohub,2013-03-26 12:08:00,
2013-03-26 08:13:00,32.4,31.6,29.85,West,278,0.0,1.0,97,0.00,,,0.01,meteohub,2013-03-26 12:13:00,
2013-03-26 08:18:00,32.5,31.8,29.85,West,269,1.0,4.0,97,0.00,,,0.01,meteohub,2013-03-26 12:18:00,
2013-03-26 08:23:00,32.7,32.0,29.85,WNW,286,1.0,4.0,97,0.00,,,0.01,meteohub,2013-03-26 12:23:00,
2013-03-26 08:28:00,33.1,32.4,29.86,WNW,286,0.0,4.0,97,0.00,,,0.01,meteohub,2013-03-26 12:28:00,
2013-03-26 08:33:00,33.3,32.5,29.86,WNW,286,0.0,2.0,97,0.00,,,0.01,meteohub,2013-03-26 12:33:00,
2013-03-26 08:38:00,33.4,32.7,29.86,WNW,284,2.0,2.0,97,0.00,,,0.01,meteohub,2013-03-26 12:38:00,
2013-03-26 08:43:00,34.0,33.3,29.86,West,276,1.0,5.0,97,0.00,,,0.01,meteohub,2013-03-26 12:43:00,
2013-03-26 08:48:00,34.5,33.8,29.86,WSW,257,0.0,5.0,97,0.00,,,0.01,meteohub,2013-03-26 12:48:00,
2013-03-26 08:53:00,35.2,34.5,29.86,WNW,292,1.0,5.0,97,0.00,,,0.01,meteohub,2013-03-26 12:53:00,
2013-03-26 08:58:00,36.1,35.4,29.86,WNW,303,3.0,5.0,97,0.00,,,0.01,meteohub,2013-03-26 12:58:00,
2013-03-26 09:03:00,36.9,36.1,29.86,WNW,302,2.0,6.0,97,0.00,,,0.01,meteohub,2013-03-26 13:03:00,
2013-03-26 09:09:00,36.7,36.0,29.87,NW,315,2.0,6.0,97,0.00,,,0.01,meteohub,2013-03-26 13:09:00,
2013-03-26 09:13:00,37.2,36.5,29.87,WNW,293,2.0,9.0,97,0.00,,,0.01,meteohub,2013-03-26 13:13:00,
2013-03-26 09:18:00,37.6,36.9,29.87,NW,311,2.0,9.0,97,0.00,,,0.01,meteohub,2013-03-26 13:18:00,
2013-03-26 09:23:00,37.9,37.2,29.87,NW,318,2.0,7.0,97,0.00,,,0.01,meteohub,2013-03-26 13:23:00,
2013-03-26 09:28:00,37.9,37.2,29.87,NW,314,3.0,6.0,97,0.01,,,0.01,meteohub,2013-03-26 13:28:00,
2013-03-26 09:33:00,38.5,37.8,29.87,WNW,285,3.0,8.0,97,0.01,,,0.02,meteohub,2013-03-26 13:33:00,
2013-03-26 09:39:00,38.5,37.8,29.87,NNW,333,3.0,8.0,97,0.01,,,0.02,meteohub,2013-03-26 13:39:00,
2013-03-26 09:44:00,39.2,37.9,29.87,West,273,2.0,10.0,95,0.01,,,0.02,meteohub,2013-03-26 13:44:00,
2013-03-26 09:49:00,39.7,38.1,29.87,NW,305,3.0,10.0,94,0.01,,,0.02,meteohub,2013-03-26 13:49:00,
2013-03-26 09:54:00,40.3,38.1,29.87,West,260,7.0,10.0,92,0.01,,,0.02,meteohub,2013-03-26 13:54:00,
2013-03-26 09:59:00,40.3,37.0,29.87,WNW,292,3.0,6.0,88,0.01,,,0.02,meteohub,2013-03-26 13:59:00,
2013-03-26 10:04:00,40.5,36.9,29.87,NNE,18,4.0,8.0,87,0.02,,,0.03,meteohub,2013-03-26 14:04:00,
2013-03-26 10:09:00,40.6,37.0,29.87,NW,323,2.0,11.0,87,0.02,,,0.03,meteohub,2013-03-26 14:09:00,
2013-03-26 10:14:00,41.4,37.8,29.88,NNW,329,3.0,11.0,87,0.02,,,0.03,meteohub,2013-03-26 14:14:00,
2013-03-26 10:19:00,41.7,37.2,29.88,NNW,333,2.0,11.0,84,0.02,,,0.03,meteohub,2013-03-26 14:19:00,
2013-03-26 10:24:00,42.3,37.2,29.88,West,271,1.0,6.0,82,0.03,,,0.04,meteohub,2013-03-26 14:24:00,
2013-03-26 10:29:00,42.4,37.4,29.88,NNW,330,5.0,7.0,82,0.02,,,0.04,meteohub,2013-03-26 14:29:00,
2013-03-26 10:34:00,42.8,37.0,29.88,NW,317,2.0,10.0,80,0.02,,,0.04,meteohub,2013-03-26 14:34:00,
2013-03-26 10:39:00,43.2,36.7,29.88,NW,308,2.0,10.0,78,0.02,,,0.04,meteohub,2013-03-26 14:39:00,
2013-03-26 10:44:00,43.5,36.5,29.88,WNW,291,2.0,10.0,76,0.02,,,0.04,meteohub,2013-03-26 14:44:00,
2013-03-26 10:49:00,43.7,36.3,29.88,NW,317,3.0,8.0,75,0.02,,,0.04,meteohub,2013-03-26 14:49:00,
2013-03-26 10:54:00,43.9,36.5,29.88,NNW,331,2.0,8.0,75,0.02,,,0.04,meteohub,2013-03-26 14:54:00,
2013-03-26 10:59:00,43.9,36.5,29.88,NW,322,3.0,8.0,75,0.01,,,0.04,meteohub,2013-03-26 14:59:00,
2013-03-26 11:04:00,44.1,35.6,29.88,NW,325,6.0,9.0,72,0.01,,,0.04,meteohub,2013-03-26 15:04:00,
2013-03-26 11:09:00,44.1,35.6,29.88,NW,305,4.0,12.0,72,0.01,,,0.04,meteohub,2013-03-26 15:09:00,
2013-03-26 11:14:00,44.2,35.8,29.89,NW,307,3.0,12.0,72,0.01,,,0.04,meteohub,2013-03-26 15:14:00,
2013-03-26 11:19:00,45.0,36.1,29.89,NW,320,2.0,12.0,71,0.00,,,0.04,meteohub,2013-03-26 15:19:00,
2013-03-26 11:24:00,45.5,36.0,29.89,WNW,292,3.0,10.0,69,0.01,,,0.05,meteohub,2013-03-26 15:24:00,
2013-03-26 11:29:00,45.9,36.0,29.89,WNW,296,4.0,10.0,68,0.01,,,0.05,meteohub,2013-03-26 15:29:00,
2013-03-26 11:34:00,45.5,35.2,29.89,NNW,345,4.0,8.0,67,0.01,,,0.05,meteohub,2013-03-26 15:34:00,
2013-03-26 11:39:00,45.7,35.4,29.89,North,350,6.0,12.0,67,0.01,,,0.05,meteohub,2013-03-26 15:39:00,
2013-03-26 11:44:00,46.0,34.9,29.89,NNW,344,4.0,12.0,65,0.01,,,0.05,meteohub,2013-03-26 15:44:00,
2013-03-26 11:49:00,46.0,34.9,29.89,WSW,254,2.0,12.0,65,0.01,,,0.05,meteohub,2013-03-26 15:49:00,
2013-03-26 11:54:00,46.6,35.1,29.89,WSW,238,3.0,9.0,64,0.01,,,0.05,meteohub,2013-03-26 15:54:00,
2013-03-26 11:59:00,46.2,34.7,29.89,NNW,344,4.0,9.0,64,0.01,,,0.05,meteohub,2013-03-26 15:59:00,
2013-03-26 12:04:00,46.0,33.8,29.90,WNW,301,3.0,9.0,62,0.01,,,0.05,meteohub,2013-03-26 16:04:00,
2013-03-26 12:09:00,46.6,34.7,29.89,NW,306,6.0,13.0,63,0.01,,,0.05,meteohub,2013-03-26 16:09:00,
2013-03-26 12:15:00,46.0,33.3,29.90,NW,321,2.0,13.0,61,0.01,,,0.05,meteohub,2013-03-26 16:15:00,
2013-03-26 12:20:00,45.9,33.6,29.89,NW,322,4.0,13.0,62,0.01,,,0.05,meteohub,2013-03-26 16:20:00,
2013-03-26 12:25:00,45.9,34.0,29.90,WNW,298,2.0,9.0,63,0.00,,,0.05,meteohub,2013-03-26 16:25:00,
2013-03-26 12:30:00,45.5,33.6,29.90,North,355,3.0,9.0,63,0.00,,,0.05,meteohub,2013-03-26 16:30:00,
2013-03-26 12:35:00,45.9,33.6,29.89,West,259,2.0,8.0,62,0.00,,,0.05,meteohub,2013-03-26 16:35:00,
2013-03-26 12:40:00,46.4,34.2,29.90,NNW,333,5.0,8.0,62,0.00,,,0.05,meteohub,2013-03-26 16:40:00,
2013-03-26 12:45:00,46.0,32.9,29.90,NW,323,3.0,8.0,60,0.00,,,0.05,meteohub,2013-03-26 16:45:00,
2013-03-26 12:50:00,46.8,34.5,29.89,NW,325,6.0,7.0,62,0.00,,,0.05,meteohub,2013-03-26 16:50:00,
2013-03-26 12:55:00,47.7,34.0,29.89,NW,304,4.0,7.0,59,0.00,,,0.05,meteohub,2013-03-26 16:55:00,
2013-03-26 13:00:00,47.5,33.4,29.89,WNW,302,4.0,7.0,58,0.00,,,0.05,meteohub,2013-03-26 17:00:00,
2013-03-26 13:05:00,47.5,31.6,29.89,NW,319,3.0,7.0,54,0.00,,,0.05,meteohub,2013-03-26 17:05:00,
2013-03-26 13:10:00,47.1,31.3,29.89,NW,311,4.0,7.0,54,0.00,,,0.05,meteohub,2013-03-26 17:10:00,
2013-03-26 13:15:00,46.9,31.1,29.89,North,351,4.0,6.0,54,0.00,,,0.05,meteohub,2013-03-26 17:15:00,
2013-03-26 13:20:00,46.2,32.7,29.89,NW,304,2.0,9.0,59,0.00,,,0.05,meteohub,2013-03-26 17:20:00,
2013-03-26 13:25:00,47.1,35.2,29.89,NNW,329,3.0,9.0,63,0.00,,,0.05,meteohub,2013-03-26 17:25:00,
2013-03-26 13:30:00,48.0,34.3,29.89,West,264,1.0,9.0,59,0.00,,,0.05,meteohub,2013-03-26 17:30:00,
2013-03-26 13:35:00,48.0,32.2,29.89,NNW,342,1.0,6.0,54,0.00,,,0.05,meteohub,2013-03-26 17:35:00,
2013-03-26 13:40:00,48.6,33.1,29.89,NNW,342,0.0,6.0,55,0.00,,,0.05,meteohub,2013-03-26 17:40:00,
2013-03-26 13:45:00,48.0,31.6,29.89,WSW,256,5.0,7.0,53,0.00,,,0.05,meteohub,2013-03-26 17:45:00,
2013-03-26 13:50:00,46.9,31.6,29.89,NNW,337,3.0,9.0,55,0.00,,,0.05,meteohub,2013-03-26 17:50:00,
2013-03-26 13:55:00,46.2,31.5,29.89,North,355,1.0,9.0,56,0.00,,,0.05,meteohub,2013-03-26 17:55:00,
2013-03-26 14:00:00,45.9,31.5,29.89,WNW,300,3.0,9.0,57,0.00,,,0.05,meteohub,2013-03-26 18:00:00,
2013-03-26 14:05:00,45.7,31.8,29.89,NW,323,2.0,7.0,58,0.00,,,0.05,meteohub,2013-03-26 18:05:00,
2013-03-26 14:10:00,45.7,31.8,29.89,NNW,333,2.0,7.0,58,0.00,,,0.05,meteohub,2013-03-26 18:10:00,
2013-03-26 14:15:00,45.5,31.1,29.89,NNW,329,2.0,5.0,57,0.00,,,0.05,meteohub,2013-03-26 18:15:00,
2013-03-26 14:20:00,45.5,30.2,29.89,NW,311,1.0,6.0,55,0.00,,,0.05,meteohub,2013-03-26 18:20:00,
2013-03-26 14:25:00,45.3,29.7,29.89,NNW,344,4.0,6.0,54,0.00,,,0.05,meteohub,2013-03-26 18:25:00,
2013-03-26 14:30:00,45.1,30.4,29.89,West,279,2.0,7.0,56,0.00,,,0.05,meteohub,2013-03-26 18:30:00,
2013-03-26 14:35:00,45.1,30.4,29.89,NW,311,3.0,7.0,56,0.00,,,0.05,meteohub,2013-03-26 18:35:00,
2013-03-26 14:40:00,45.1,30.4,29.89,WNW,303,1.0,7.0,56,0.00,,,0.05,meteohub,2013-03-26 18:40:00,
2013-03-26 14:45:00,45.5,30.2,29.89,WNW,300,2.0,6.0,55,0.00,,,0.05,meteohub,2013-03-26 18:45:00,
2013-03-26 14:50:00,45.7,30.4,29.89,South,186,3.0,6.0,55,0.00,,,0.05,meteohub,2013-03-26 18:50:00,
2013-03-26 14:55:00,45.9,31.1,29.89,ESE,121,0.0,5.0,56,0.00,,,0.05,meteohub,2013-03-26 18:55:00,
2013-03-26 15:00:00,45.9,31.5,29.89,NW,318,1.0,4.0,57,0.00,,,0.05,meteohub,2013-03-26 19:00:00,
2013-03-26 15:05:00,45.7,31.3,29.89,WNW,285,2.0,4.0,57,0.00,,,0.05,meteohub,2013-03-26 19:05:00,
2013-03-26 15:10:00,45.7,30.0,29.89,NW,306,4.0,9.0,54,0.00,,,0.05,meteohub,2013-03-26 19:10:00,
2013-03-26 15:15:00,45.5,29.8,29.89,SW,223,0.0,9.0,54,0.00,,,0.05,meteohub,2013-03-26 19:15:00,
2013-03-26 15:20:00,45.5,30.2,29.88,NW,323,1.0,9.0,55,0.00,,,0.05,meteohub,2013-03-26 19:20:00,
2013-03-26 15:25:00,45.5,29.3,29.88,NW,321,0.0,6.0,53,0.00,,,0.05,meteohub,2013-03-26 19:25:00,
2013-03-26 15:30:00,45.5,28.9,29.88,NW,306,2.0,4.0,52,0.00,,,0.05,meteohub,2013-03-26 19:30:00,
2013-03-26 15:35:00,45.7,30.0,29.88,NNW,327,2.0,5.0,54,0.00,,,0.05,meteohub,2013-03-26 19:35:00,
2013-03-26 15:40:00,45.9,29.3,29.88,NW,307,2.0,5.0,52,0.00,,,0.05,meteohub,2013-03-26 19:40:00,
2013-03-26 15:45:00,46.2,29.1,29.88,NW,323,3.0,7.0,51,0.00,,,0.05,meteohub,2013-03-26 19:45:00,
2013-03-26 15:50:00,46.6,29.5,29.88,NW,318,1.0,7.0,51,0.00,,,0.05,meteohub,2013-03-26 19:50:00,
2013-03-26 15:55:00,46.6,29.5,29.88,NW,320,2.0,7.0,51,0.00,,,0.05,meteohub,2013-03-26 19:55:00,
2013-03-26 16:00:00,46.8,31.5,29.88,NW,323,2.0,5.0,55,0.00,,,0.05,meteohub,2013-03-26 20:00:00,
2013-03-26 16:06:00,47.5,29.8,29.88,NW,307,0.0,5.0,50,0.00,,,0.05,meteohub,2013-03-26 20:06:00,
2013-03-26 16:11:00,48.2,30.0,29.88,NW,304,4.0,4.0,49,0.00,,,0.05,meteohub,2013-03-26 20:11:00,
2013-03-26 16:16:00,48.6,30.7,29.88,NW,315,3.0,7.0,50,0.00,,,0.05,meteohub,2013-03-26 20:16:00,
2013-03-26 16:21:00,48.9,29.7,29.88,WNW,294,2.0,7.0,47,0.00,,,0.05,meteohub,2013-03-26 20:21:00,
2013-03-26 16:26:00,49.3,29.3,29.88,NW,315,1.0,7.0,46,0.00,,,0.05,meteohub,2013-03-26 20:26:00,
2013-03-26 16:31:00,49.3,29.8,29.88,NW,321,0.0,6.0,47,0.00,,,0.05,meteohub,2013-03-26 20:31:00,
2013-03-26 16:36:00,48.7,30.4,29.88,NW,312,4.0,5.0,49,0.00,,,0.05,meteohub,2013-03-26 20:36:00,
2013-03-26 16:41:00,48.6,30.2,29.88,NNW,333,0.0,6.0,49,0.00,,,0.05,meteohub,2013-03-26 20:41:00,
2013-03-26 16:46:00,48.7,28.9,29.88,NW,311,2.0,8.0,46,0.00,,,0.05,meteohub,2013-03-26 20:46:00,
2013-03-26 16:51:00,49.1,30.2,29.88,West,276,3.0,8.0,48,0.00,,,0.05,meteohub,2013-03-26 20:51:00,
2013-03-26 16:56:00,48.9,29.1,29.88,NNW,338,2.0,8.0,46,0.00,,,0.05,meteohub,2013-03-26 20:56:00,
2013-03-26 17:01:00,48.6,28.2,29.89,NW,321,2.0,5.0,45,0.00,,,0.05,meteohub,2013-03-26 21:01:00,
2013-03-26 17:06:00,48.0,28.2,29.89,NNW,341,4.0,5.0,46,0.00,,,0.05,meteohub,2013-03-26 21:06:00,
2013-03-26 17:11:00,47.8,29.1,29.89,West,271,6.0,8.0,48,0.00,,,0.05,meteohub,2013-03-26 21:11:00,
2013-03-26 17:17:00,47.8,29.1,29.89,WNW,288,0.0,8.0,48,0.00,,,0.05,meteohub,2013-03-26 21:17:00,
2013-03-26 17:22:00,48.2,29.5,29.89,NW,319,2.0,8.0,48,0.00,,,0.05,meteohub,2013-03-26 21:22:00,
2013-03-26 17:27:00,48.0,28.8,29.89,NW,306,0.0,7.0,47,0.00,,,0.05,meteohub,2013-03-26 21:27:00,
2013-03-26 17:32:00,47.8,28.6,29.89,WNW,283,2.0,7.0,47,0.00,,,0.05,meteohub,2013-03-26 21:32:00,
2013-03-26 17:37:00,47.7,26.8,29.89,NW,306,3.0,7.0,44,0.00,,,0.05,meteohub,2013-03-26 21:37:00,
2013-03-26 17:42:00,47.7,28.4,29.89,WSW,242,1.0,6.0,47,0.00,,,0.05,meteohub,2013-03-26 21:42:00,
2013-03-26 17:47:00,47.8,29.1,29.89,NW,317,0.0,6.0,48,0.00,,,0.05,meteohub,2013-03-26 21:47:00,
2013-03-26 17:52:00,47.8,28.6,29.89,WNW,296,2.0,6.0,47,0.00,,,0.05,meteohub,2013-03-26 21:52:00,
2013-03-26 17:57:00,47.8,28.6,29.90,West,281,12.0,12.0,47,0.00,,,0.05,meteohub,2013-03-26 21:57:00,
2013-03-26 18:02:00,47.7,28.4,29.90,NW,325,2.0,12.0,47,0.00,,,0.05,meteohub,2013-03-26 22:02:00,
2013-03-26 18:07:00,47.5,29.3,29.91,NNW,340,4.0,12.0,49,0.00,,,0.05,meteohub,2013-03-26 22:07:00,
2013-03-26 18:12:00,46.9,29.3,29.91,NW,304,2.0,12.0,50,0.00,,,0.05,meteohub,2013-03-26 22:12:00,
2013-03-26 18:17:00,46.8,29.7,29.91,NW,314,3.0,9.0,51,0.00,,,0.05,meteohub,2013-03-26 22:17:00,
2013-03-26 18:22:00,46.6,29.8,29.91,NW,317,2.0,8.0,52,0.00,,,0.05,meteohub,2013-03-26 22:22:00,
2013-03-26 18:27:00,46.6,30.7,29.91,WNW,293,1.0,8.0,54,0.00,,,0.05,meteohub,2013-03-26 22:27:00,
2013-03-26 18:32:00,46.2,30.0,29.91,SSW,205,5.0,5.0,53,0.00,,,0.05,meteohub,2013-03-26 22:32:00,
2013-03-26 18:37:00,46.0,30.4,29.91,West,263,3.0,10.0,54,0.00,,,0.05,meteohub,2013-03-26 22:37:00,
2013-03-26 18:43:00,45.9,30.2,29.91,NW,317,2.0,10.0,54,0.00,,,0.05,meteohub,2013-03-26 22:43:00,
2013-03-26 18:48:00,45.7,30.0,29.92,NW,313,2.0,7.0,54,0.00,,,0.05,meteohub,2013-03-26 22:48:00,
2013-03-26 18:53:00,45.5,30.2,29.92,NW,306,1.0,6.0,55,0.00,,,0.05,meteohub,2013-03-26 22:53:00,
2013-03-26 18:58:00,45.1,30.0,29.92,NW,314,1.0,5.0,55,0.00,,,0.05,meteohub,2013-03-26 22:58:00,
2013-03-26 19:03:00,45.1,30.7,29.93,West,278,1.0,5.0,57,0.00,,,0.05,meteohub,2013-03-26 23:03:00,
2013-03-26 19:08:00,45.0,30.6,29.93,NW,311,3.0,5.0,57,0.00,,,0.05,meteohub,2013-03-26 23:08:00,
2013-03-26 19:13:00,44.8,30.6,29.93,WNW,300,3.0,5.0,57,0.00,,,0.05,meteohub,2013-03-26 23:13:00,
2013-03-26 19:18:00,44.6,30.4,29.94,NW,304,4.0,5.0,57,0.00,,,0.05,meteohub,2013-03-26 23:18:00,
2013-03-26 19:23:00,44.6,30.7,29.94,NW,315,1.0,5.0,58,0.00,,,0.05,meteohub,2013-03-26 23:23:00,
2013-03-26 19:28:00,44.4,29.7,29.94,NW,326,3.0,5.0,56,0.00,,,0.05,meteohub,2013-03-26 23:28:00,
2013-03-26 19:33:00,44.6,29.8,29.94,NW,318,2.0,7.0,56,0.00,,,0.05,meteohub,2013-03-26 23:33:00,
2013-03-26 19:38:00,44.6,30.4,29.94,NW,317,3.0,7.0,57,0.00,,,0.05,meteohub,2013-03-26 23:38:00,
2013-03-26 19:43:00,44.6,29.8,29.95,West,271,2.0,7.0,56,0.00,,,0.05,meteohub,2013-03-26 23:43:00,
2013-03-26 19:48:00,44.8,30.0,29.95,NW,309,2.0,5.0,56,0.00,,,0.05,meteohub,2013-03-26 23:48:00,
2013-03-26 19:53:00,44.8,30.0,29.95,NW,307,0.0,6.0,56,0.00,,,0.05,meteohub,2013-03-26 23:53:00,
2013-03-26 19:58:00,44.8,30.6,29.95,NW,306,2.0,6.0,57,0.00,,,0.05,meteohub,2013-03-26 23:58:00,
2013-03-26 20:03:00,44.8,30.0,29.96,WNW,284,3.0,6.0,56,0.00,,,0.05,meteohub,2013-03-27 00:03:00,
2013-03-26 20:08:00,44.8,30.6,29.96,NNW,338,2.0,4.0,57,0.00,,,0.05,meteohub,2013-03-27 00:08:00,
2013-03-26 20:13:00,44.8,30.6,29.96,NW,309,0.0,4.0,57,0.00,,,0.05,meteohub,2013-03-27 00:13:00,
2013-03-26 20:18:00,44.8,30.9,29.96,NW,308,1.0,4.0,58,0.00,,,0.05,meteohub,2013-03-27 00:18:00,
2013-03-26 20:23:00,44.4,30.2,29.96,NW,318,1.0,4.0,57,0.00,,,0.05,meteohub,2013-03-27 00:23:00,
2013-03-26 20:28:00,44.4,30.2,29.96,West,278,3.0,3.0,57,0.00,,,0.05,meteohub,2013-03-27 00:28:00,
2013-03-26 20:33:00,44.4,30.6,29.96,NW,308,1.0,4.0,58,0.00,,,0.05,meteohub,2013-03-27 00:33:00,
2013-03-26 20:38:00,44.2,30.0,29.96,NW,320,1.0,4.0,57,0.00,,,0.05,meteohub,2013-03-27 00:38:00,
2013-03-26 20:43:00,44.1,29.8,29.97,WNW,299,2.0,4.0,57,0.00,,,0.05,meteohub,2013-03-27 00:43:00,
2013-03-26 20:48:00,44.1,30.2,29.97,WNW,299,0.0,4.0,58,0.00,,,0.05,meteohub,2013-03-27 00:48:00,
2013-03-26 20:53:00,43.9,30.0,29.97,WNW,292,1.0,4.0,58,0.00,,,0.05,meteohub,2013-03-27 00:53:00,
2013-03-26 20:58:00,43.7,29.8,29.97,WNW,294,2.0,3.0,58,0.00,,,0.05,meteohub,2013-03-27 00:58:00,
2013-03-26 21:03:00,43.9,30.6,29.98,West,262,1.0,3.0,59,0.00,,,0.05,meteohub,2013-03-27 01:03:00,
2013-03-26 21:08:00,43.9,29.7,29.98,NW,318,2.0,5.0,57,0.00,,,0.05,meteohub,2013-03-27 01:08:00,
2013-03-26 21:11:00,43.9,29.7,29.98,WNW,284,0.0,6.0,57,0.00,,,0.05,meteohub,2013-03-27 01:11:00,
2013-03-26 21:17:00,44.1,29.3,29.98,WNW,297,1.0,6.0,56,0.00,,,0.05,meteohub,2013-03-27 01:17:00,
2013-03-26 21:27:00,44.1,29.8,29.98,NW,309,5.0,6.0,57,0.00,,,0.05,meteohub,2013-03-27 01:27:00,
2013-03-26 21:32:00,44.1,28.9,29.98,NW,315,2.0,6.0,55,0.00,,,0.05,meteohub,2013-03-27 01:32:00,
2013-03-26 21:37:00,44.2,29.5,29.98,West,280,1.0,6.0,56,0.00,,,0.05,meteohub,2013-03-27 01:37:00,
2013-03-26 21:42:00,44.2,29.1,29.99,NW,304,1.0,6.0,55,0.00,,,0.05,meteohub,2013-03-27 01:42:00,
2013-03-26 21:47:00,44.2,28.6,29.99,WSW,257,4.0,5.0,54,0.00,,,0.05,meteohub,2013-03-27 01:47:00,
2013-03-26 21:52:00,44.2,28.6,29.99,NW,311,2.0,6.0,54,0.00,,,0.05,meteohub,2013-03-27 01:52:00,
2013-03-26 21:57:00,44.2,28.6,29.99,WNW,303,1.0,6.0,54,0.00,,,0.05,meteohub,2013-03-27 01:57:00,
2013-03-26 22:02:00,44.2,28.6,29.99,NW,310,2.0,6.0,54,0.00,,,0.05,meteohub,2013-03-27 02:02:00,
2013-03-26 22:07:00,44.2,28.6,30.00,NW,311,3.0,6.0,54,0.00,,,0.05,meteohub,2013-03-27 02:07:00,
2013-03-26 22:12:00,44.2,29.1,30.00,NNW,342,1.0,6.0,55,0.00,,,0.05,meteohub,2013-03-27 02:12:00,
2013-03-26 22:17:00,44.1,28.9,30.00,WNW,284,3.0,6.0,55,0.00,,,0.05,meteohub,2013-03-27 02:17:00,
2013-03-26 22:22:00,44.1,28.4,30.00,WNW,299,2.0,4.0,54,0.00,,,0.05,meteohub,2013-03-27 02:22:00,
2013-03-26 22:27:00,44.1,28.9,30.00,WNW,300,1.0,5.0,55,0.00,,,0.05,meteohub,2013-03-27 02:27:00,
2013-03-26 22:32:00,44.1,28.9,30.00,WNW,289,1.0,5.0,55,0.00,,,0.05,meteohub,2013-03-27 02:32:00,
2013-03-26 22:37:00,43.9,29.1,30.00,WNW,299,1.0,5.0,56,0.00,,,0.05,meteohub,2013-03-27 02:37:00,
2013-03-26 22:42:00,43.7,29.1,30.00,WNW,298,2.0,4.0,56,0.00,,,0.05,meteohub,2013-03-27 02:42:00,
2013-03-26 22:47:00,43.7,29.1,30.00,WNW,282,1.0,7.0,56,0.00,,,0.05,meteohub,2013-03-27 02:47:00,
2013-03-26 22:52:00,43.7,29.1,30.00,WNW,288,4.0,7.0,56,0.00,,,0.05,meteohub,2013-03-27 02:52:00,
2013-03-26 22:57:00,43.5,28.9,30.00,NW,309,2.0,7.0,56,0.00,,,0.05,meteohub,2013-03-27 02:57:00,
2013-03-26 23:02:00,43.5,28.9,30.00,NW,317,2.0,7.0,56,0.00,,,0.05,meteohub,2013-03-27 03:02:00,
2013-03-26 23:07:00,43.5,29.3,30.00,NNW,340,6.0,7.0,57,0.00,,,0.05,meteohub,2013-03-27 03:07:00,
2013-03-26 23:12:00,43.3,29.1,30.00,NW,309,3.0,10.0,57,0.00,,,0.05,meteohub,2013-03-27 03:12:00,
2013-03-26 23:17:00,43.3,29.5,30.00,NW,304,4.0,10.0,58,0.00,,,0.05,meteohub,2013-03-27 03:17:00,
2013-03-26 23:23:00,43.2,29.3,30.01,NW,323,2.0,10.0,58,0.00,,,0.05,meteohub,2013-03-27 03:23:00,
2013-03-26 23:28:00,43.0,29.7,30.01,WNW,287,0.0,10.0,59,0.00,,,0.05,meteohub,2013-03-27 03:28:00,
2013-03-26 23:33:00,42.8,29.5,30.01,NW,306,2.0,10.0,59,0.00,,,0.05,meteohub,2013-03-27 03:33:00,
2013-03-26 23:38:00,42.6,29.3,30.01,NW,324,5.0,7.0,59,0.00,,,0.05,meteohub,2013-03-27 03:38:00,
2013-03-26 23:43:00,42.6,29.7,30.01,NW,321,1.0,7.0,60,0.00,,,0.05,meteohub,2013-03-27 03:43:00,
2013-03-26 23:48:00,42.4,29.5,30.01,NW,306,1.0,7.0,60,0.00,,,0.05,meteohub,2013-03-27 03:48:00,
2013-03-26 23:53:00,42.3,29.8,30.01,NW,305,0.0,7.0,61,0.00,,,0.05,meteohub,2013-03-27 03:53:00,
2013-03-26 23:58:00,42.1,29.7,30.01,WSW,253,3.0,5.0,61,0.00,,,0.05,meteohub,2013-03-27 03:58:00,